Time;durP1;ratioP1;P1;durP2;ratioP2;P2;SDS_P1;SDS_P2;PMS_P1;PMS_P2;Temp;Humidity;BMP_temperature;BMP_pressure;BME280_temperature;BME280_humidity;BME280_pressure;Samples;Min_cycle;Max_cycle;Signal;HPM_P1;HPM_P2
2023/03/25 00:00:31;;;;;;;;;;;20.90;42.60;;;;;;1541389;77;887;-61
2023/03/25 00:02:34;;;;;;;;;;;21.00;42.60;;;;;;1536223;77;1142;-59
2023/03/25 00:04:38;;;;;;;;;;;20.90;42.60;;;;;;1532931;77;1901;-61
2023/03/25 00:06:39;;;;;;;;;;;20.90;42.60;;;;;;1544234;77;1661;-61
2023/03/25 00:08:41;;;;;;;;;;;20.90;42.60;;;;;;1545235;77;785;-60
2023/03/25 00:10:43;;;;;;;;;;;20.90;42.60;;;;;;1542017;77;716;-60
2023/03/25 00:12:45;;;;;;;;;;;20.90;42.60;;;;;;1539142;77;1154;-60
2023/03/25 00:14:53;;;;;;;;;;;20.90;42.70;;;;;;1548422;77;747;-61
2023/03/25 00:16:51;;;;;;;;;;;20.90;42.60;;;;;;1540451;77;1741;-61
2023/03/25 00:18:53;;;;;;;;;;;20.90;42.60;;;;;;1540632;77;774;-61
2023/03/25 00:20:56;;;;;;;;;;;20.80;42.60;;;;;;1534882;77;741;-60
2023/03/25 00:22:58;;;;;;;;;;;20.80;42.80;;;;;;1538134;77;1139;-61
2023/03/25 00:25:00;;;;;;;;;;;20.70;42.60;;;;;;1531630;77;1932;-61
2023/03/25 00:27:02;;;;;;;;;;;20.80;42.60;;;;;;1537431;77;816;-61
2023/03/25 00:29:04;;;;;;;;;;;20.80;42.60;;;;;;1531197;77;691;-59
2023/03/25 00:31:07;;;;;;;;;;;20.80;42.60;;;;;;1540204;77;1590;-61
2023/03/25 00:33:12;;;;;;;;;;;20.70;42.70;;;;;;1540364;77;1158;-61
2023/03/25 00:35:16;;;;;;;;;;;20.70;42.90;;;;;;1538021;77;886;-61
2023/03/25 00:37:20;;;;;;;;;;;20.60;42.80;;;;;;1537496;77;1477;-61
2023/03/25 00:39:21;;;;;;;;;;;20.50;43.00;;;;;;1547824;77;1693;-60
2023/03/25 00:41:27;;;;;;;;;;;20.50;43.10;;;;;;1536372;77;798;-59
2023/03/25 00:43:28;;;;;;;;;;;20.50;43.10;;;;;;1540897;77;1189;-60
2023/03/25 00:45:30;;;;;;;;;;;20.50;43.10;;;;;;1541815;77;1936;-61
2023/03/25 00:47:32;;;;;;;;;;;20.40;43.10;;;;;;1545480;77;757;-62
2023/03/25 00:49:34;;;;;;;;;;;20.50;43.20;;;;;;1536817;77;628;-60
2023/03/25 00:51:36;;;;;;;;;;;20.40;43.10;;;;;;1532875;77;693;-60
2023/03/25 00:53:38;;;;;;;;;;;20.40;43.20;;;;;;1536062;77;1065;-60
2023/03/25 00:55:40;;;;;;;;;;;20.40;43.10;;;;;;1531199;77;686;-61
2023/03/25 00:57:42;;;;;;;;;;;20.40;43.20;;;;;;1536568;77;886;-61
2023/03/25 00:59:44;;;;;;;;;;;20.40;43.10;;;;;;1531257;77;1458;-60
2023/03/25 01:01:46;;;;;;;;;;;20.40;43.10;;;;;;1534336;77;732;-61
2023/03/25 01:03:48;;;;;;;;;;;20.40;43.30;;;;;;1546161;77;1939;-60
2023/03/25 01:05:53;;;;;;;;;;;20.40;43.10;;;;;;1547062;77;579;-61
2023/03/25 01:07:54;;;;;;;;;;;20.50;43.20;;;;;;1528871;77;1732;-61
2023/03/25 01:09:57;;;;;;;;;;;20.50;43.00;;;;;;1543698;77;726;-62
2023/03/25 01:11:59;;;;;;;;;;;20.50;43.10;;;;;;1542236;77;691;-61
2023/03/25 01:14:01;;;;;;;;;;;20.50;43.00;;;;;;1538829;77;1504;-59
2023/03/25 01:16:04;;;;;;;;;;;20.50;42.90;;;;;;1544444;77;726;-60
2023/03/25 01:18:06;;;;;;;;;;;20.50;43.00;;;;;;1543341;77;2019;-60
2023/03/25 01:20:08;;;;;;;;;;;20.60;42.80;;;;;;1532195;77;829;-60
2023/03/25 01:22:10;;;;;;;;;;;20.60;42.80;;;;;;1533574;77;1149;-60
2023/03/25 01:24:13;;;;;;;;;;;20.70;42.80;;;;;;1543486;77;1919;-61
2023/03/25 01:26:15;;;;;;;;;;;20.80;42.60;;;;;;1541088;77;728;-61
2023/03/25 01:28:19;;;;;;;;;;;20.70;42.60;;;;;;1536858;77;1471;-60
2023/03/25 01:30:20;;;;;;;;;;;20.70;42.60;;;;;;1533658;77;1576;-60
2023/03/25 01:32:22;;;;;;;;;;;20.70;42.50;;;;;;1533497;77;1146;-60
2023/03/25 01:34:24;;;;;;;;;;;20.70;42.40;;;;;;1542252;77;703;-61
2023/03/25 01:36:29;;;;;;;;;;;20.80;42.30;;;;;;1537814;77;773;-61
2023/03/25 01:38:31;;;;;;;;;;;20.90;42.30;;;;;;1536089;77;708;-61
2023/03/25 01:40:33;;;;;;;;;;;20.90;42.30;;;;;;1532863;77;683;-60
2023/03/25 01:42:35;;;;;;;;;;;20.90;42.20;;;;;;1531268;77;1597;-60
2023/03/25 01:44:41;;;;;;;;;;;20.90;42.10;;;;;;1531835;77;1932;-61
2023/03/25 01:46:43;;;;;;;;;;;21.00;42.10;;;;;;1542363;77;653;-61
2023/03/25 01:48:48;;;;;;;;;;;20.90;42.10;;;;;;1539087;77;792;-60
2023/03/25 01:50:50;;;;;;;;;;;20.90;42.10;;;;;;1543947;75;1664;-60
2023/03/25 01:52:52;;;;;;;;;;;20.90;42.10;;;;;;1536533;77;1098;-61
2023/03/25 01:54:54;;;;;;;;;;;20.90;42.00;;;;;;1534977;77;775;-60
2023/03/25 01:56:56;;;;;;;;;;;20.90;42.10;;;;;;1538091;77;1450;-61
2023/03/25 01:58:58;;;;;;;;;;;20.90;42.10;;;;;;1544258;77;670;-62
2023/03/25 02:01:01;;;;;;;;;;;20.90;42.00;;;;;;1536280;77;800;-61
2023/03/25 02:03:02;;;;;;;;;;;20.80;42.10;;;;;;1541069;77;1183;-60
2023/03/25 02:05:21;;;;;;;;;;;20.70;42.20;;;;;;1537936;77;1924;-60
2023/03/25 02:07:29;;;;;;;;;;;20.70;42.30;;;;;;1533883;77;718;-62
2023/03/25 02:09:26;;;;;;;;;;;20.80;42.20;;;;;;1536836;77;1864;-60
2023/03/25 02:11:28;;;;;;;;;;;20.70;42.10;;;;;;1535812;75;645;-60
2023/03/25 02:13:30;;;;;;;;;;;20.80;42.10;;;;;;1527596;77;1242;-61
2023/03/25 02:15:34;;;;;;;;;;;20.80;42.00;;;;;;1542256;77;717;-61
2023/03/25 02:17:40;;;;;;;;;;;20.90;42.20;;;;;;1546981;77;1531;-62
2023/03/25 02:20:08;;;;;;;;;;;20.80;42.10;;;;;;1545510;77;760;-60
2023/03/25 02:22:16;;;;;;;;;;;20.80;42.00;;;;;;1540297;77;1157;-60
2023/03/25 02:24:35;;;;;;;;;;;20.80;42.00;;;;;;1545986;77;2462;-60
2023/03/25 02:26:55;;;;;;;;;;;20.80;42.00;;;;;;1529980;77;1928;-60
2023/03/25 02:29:00;;;;;;;;;;;20.80;42.10;;;;;;1540639;77;746;-61
2023/03/25 02:31:03;;;;;;;;;;;20.80;42.10;;;;;;1543797;77;1664;-60
2023/03/25 02:33:12;;;;;;;;;;;20.80;42.10;;;;;;1540126;77;1171;-60
2023/03/25 02:35:16;;;;;;;;;;;20.90;42.10;;;;;;1540455;77;678;-62
2023/03/25 02:37:28;;;;;;;;;;;20.80;42.00;;;;;;1538086;77;826;-60
2023/03/25 02:39:38;;;;;;;;;;;20.80;42.00;;;;;;1531430;77;2013;-61
2023/03/25 02:41:42;;;;;;;;;;;20.90;42.10;;;;;;1535015;77;728;-60
2023/03/25 02:43:51;;;;;;;;;;;20.80;42.00;;;;;;1541549;77;1143;-61
2023/03/25 02:45:54;;;;;;;;;;;20.80;41.90;;;;;;1528260;77;1939;-60
2023/03/25 02:47:59;;;;;;;;;;;20.80;42.00;;;;;;1547975;77;695;-60
2023/03/25 02:50:04;;;;;;;;;;;20.70;42.00;;;;;;1538213;77;966;-61
2023/03/25 02:52:13;;;;;;;;;;;20.80;42.00;;;;;;1541004;77;1832;-61
2023/03/25 02:54:15;;;;;;;;;;;20.70;42.00;;;;;;1525140;77;788;-62
2023/03/25 02:56:20;;;;;;;;;;;20.70;42.00;;;;;;1540609;77;797;-61
2023/03/25 02:58:21;;;;;;;;;;;20.70;42.20;;;;;;1538525;77;1808;-61
2023/03/25 03:00:25;;;;;;;;;;;20.60;42.20;;;;;;1539846;77;672;-60
2023/03/25 03:02:27;;;;;;;;;;;20.60;42.20;;;;;;1535147;77;1150;-60
2023/03/25 03:04:29;;;;;;;;;;;20.60;42.20;;;;;;1509297;77;1982;-60
2023/03/25 03:06:32;;;;;;;;;;;20.50;42.30;;;;;;1542600;77;1443;-60
2023/03/25 03:08:39;;;;;;;;;;;20.60;42.30;;;;;;1538913;77;728;-60
2023/03/25 03:10:42;;;;;;;;;;;20.70;42.30;;;;;;1534138;77;1814;-59
2023/03/25 03:12:48;;;;;;;;;;;20.60;42.20;;;;;;1535601;76;1509;-60
2023/03/25 03:14:58;;;;;;;;;;;20.50;43.10;;;;;;1547368;77;2005;-60
2023/03/25 03:17:02;;;;;;;;;;;20.50;43.00;;;;;;1539767;77;717;-60
2023/03/25 03:19:23;;;;;;;;;;;20.60;43.00;;;;;;1525004;77;747;-59
2023/03/25 03:21:33;;;;;;;;;;;20.70;43.00;;;;;;1532227;77;1967;-59
2023/03/25 03:23:44;;;;;;;;;;;20.70;42.90;;;;;;1541738;77;1112;-59
2023/03/25 03:25:53;;;;;;;;;;;20.70;42.90;;;;;;1499179;77;1931;-59
2023/03/25 03:28:00;;;;;;;;;;;20.70;43.20;;;;;;1529365;77;768;-60
2023/03/25 03:30:03;;;;;;;;;;;20.60;43.30;;;;;;1540480;77;1881;-60
2023/03/25 03:32:10;;;;;;;;;;;20.50;43.50;;;;;;1537220;77;1165;-59
2023/03/25 03:34:13;;;;;;;;;;;20.50;43.70;;;;;;1543276;77;1540;-59
2023/03/25 03:36:16;;;;;;;;;;;20.50;44.00;;;;;;1539940;77;1806;-59
2023/03/25 03:38:19;;;;;;;;;;;20.50;44.10;;;;;;1542669;77;705;-61
2023/03/25 03:40:21;;;;;;;;;;;20.50;44.20;;;;;;1532492;77;819;-60
2023/03/25 03:42:36;;;;;;;;;;;20.50;44.20;;;;;;1528672;77;1170;-60
2023/03/25 03:44:38;;;;;;;;;;;20.50;44.30;;;;;;1529823;77;661;-60
2023/03/25 03:46:42;;;;;;;;;;;20.50;44.40;;;;;;1544458;77;636;-60
2023/03/25 03:48:48;;;;;;;;;;;20.50;44.30;;;;;;1538864;77;1350;-59
2023/03/25 03:50:51;;;;;;;;;;;20.50;44.50;;;;;;1537416;77;739;-60
2023/03/25 03:53:10;;;;;;;;;;;20.50;44.40;;;;;;1534646;77;1143;-59
2023/03/25 03:55:28;;;;;;;;;;;20.50;44.40;;;;;;1546036;77;707;-59
2023/03/25 03:57:37;;;;;;;;;;;20.60;44.50;;;;;;1538768;77;1860;-60
2023/03/25 03:59:46;;;;;;;;;;;20.60;44.40;;;;;;1535216;77;1377;-60
2023/03/25 04:01:52;;;;;;;;;;;20.70;44.70;;;;;;1539563;77;1556;-61
2023/03/25 04:03:55;;;;;;;;;;;20.70;44.70;;;;;;1543845;77;1435;-60
2023/03/25 04:06:14;;;;;;;;;;;20.70;44.40;;;;;;1535410;77;1927;-60
2023/03/25 04:08:20;;;;;;;;;;;20.90;44.60;;;;;;1541875;77;694;-60
2023/03/25 04:10:28;;;;;;;;;;;20.80;44.30;;;;;;1530277;77;2005;-61
2023/03/25 04:12:26;;;;;;;;;;;20.80;44.20;;;;;;1542011;77;1727;-59
2023/03/25 04:14:28;;;;;;;;;;;20.80;44.20;;;;;;1536017;77;638;-60
2023/03/25 04:16:31;;;;;;;;;;;20.90;44.30;;;;;;1538181;77;1173;-59
2023/03/25 04:18:33;;;;;;;;;;;20.80;44.20;;;;;;1536517;77;697;-60
2023/03/25 04:20:35;;;;;;;;;;;20.90;44.20;;;;;;1541890;77;724;-58
2023/03/25 04:22:37;;;;;;;;;;;20.90;44.30;;;;;;1538533;77;1174;-60
2023/03/25 04:24:40;;;;;;;;;;;20.90;44.40;;;;;;1547620;77;621;-60
2023/03/25 04:26:42;;;;;;;;;;;20.90;44.40;;;;;;1541545;77;1903;-59
2023/03/25 04:28:44;;;;;;;;;;;20.90;44.20;;;;;;1540459;77;702;-60
2023/03/25 04:30:54;;;;;;;;;;;20.90;44.30;;;;;;1544269;77;1471;-60
2023/03/25 04:32:50;;;;;;;;;;;20.90;44.20;;;;;;1537459;77;1655;-59
2023/03/25 04:34:56;;;;;;;;;;;20.90;44.20;;;;;;1542491;77;747;-59
2023/03/25 04:36:55;;;;;;;;;;;20.90;44.20;;;;;;1530401;77;1652;-60
2023/03/25 04:38:57;;;;;;;;;;;20.90;44.30;;;;;;1540325;77;765;-60
2023/03/25 04:40:59;;;;;;;;;;;20.90;44.40;;;;;;1548249;77;721;-60
2023/03/25 04:43:01;;;;;;;;;;;20.90;44.30;;;;;;1548753;77;1172;-60
2023/03/25 04:45:06;;;;;;;;;;;20.90;44.20;;;;;;1544663;77;1931;-61
2023/03/25 04:47:10;;;;;;;;;;;20.90;44.20;;;;;;1544348;77;2298;-60
2023/03/25 04:49:14;;;;;;;;;;;21.00;44.20;;;;;;1544982;77;808;-59
2023/03/25 04:51:16;;;;;;;;;;;21.00;44.20;;;;;;1541992;77;1860;-60
2023/03/25 04:53:18;;;;;;;;;;;21.00;44.20;;;;;;1542523;77;1123;-60
2023/03/25 04:55:20;;;;;;;;;;;20.90;44.20;;;;;;1533231;77;751;-59
2023/03/25 04:57:24;;;;;;;;;;;20.90;44.20;;;;;;1541927;77;742;-60
2023/03/25 04:59:25;;;;;;;;;;;21.00;44.10;;;;;;1545395;77;1650;-60
2023/03/25 05:01:30;;;;;;;;;;;21.00;44.20;;;;;;1548005;77;788;-59
2023/03/25 05:03:32;;;;;;;;;;;21.00;44.20;;;;;;1545451;77;1133;-59
2023/03/25 05:05:34;;;;;;;;;;;21.00;44.10;;;;;;1543781;77;1931;-58
2023/03/25 05:07:36;;;;;;;;;;;21.00;44.00;;;;;;1542351;77;673;-58
2023/03/25 05:09:38;;;;;;;;;;;21.00;43.90;;;;;;1546245;77;657;-59
2023/03/25 05:11:40;;;;;;;;;;;21.00;43.90;;;;;;1541182;77;586;-59
2023/03/25 05:13:42;;;;;;;;;;;21.10;44.10;;;;;;1534257;77;1631;-59
2023/03/25 05:15:44;;;;;;;;;;;21.10;44.20;;;;;;1534769;77;683;-59
2023/03/25 05:17:46;;;;;;;;;;;21.10;44.00;;;;;;1540156;77;822;-59
2023/03/25 05:19:50;;;;;;;;;;;21.10;44.00;;;;;;1538336;77;643;-59
2023/03/25 05:21:51;;;;;;;;;;;21.10;44.00;;;;;;1530725;76;1470;-60
2023/03/25 05:23:53;;;;;;;;;;;21.10;44.00;;;;;;1544019;77;1182;-60
2023/03/25 05:25:55;;;;;;;;;;;21.10;44.40;;;;;;1545072;77;1928;-59
2023/03/25 05:27:57;;;;;;;;;;;21.10;44.30;;;;;;1532824;77;1522;-59
2023/03/25 05:29:59;;;;;;;;;;;21.10;44.20;;;;;;1533397;77;744;-59
2023/03/25 05:32:01;;;;;;;;;;;21.10;44.20;;;;;;1538843;77;1210;-60
2023/03/25 05:34:05;;;;;;;;;;;21.10;44.20;;;;;;1540884;77;566;-60
2023/03/25 05:36:08;;;;;;;;;;;21.20;44.40;;;;;;1544455;77;1646;-60
2023/03/25 05:38:17;;;;;;;;;;;21.10;44.30;;;;;;1536769;77;754;-60
2023/03/25 05:40:16;;;;;;;;;;;21.20;44.30;;;;;;1539446;77;1667;-60
2023/03/25 05:42:21;;;;;;;;;;;21.20;44.10;;;;;;1531806;77;1169;-60
2023/03/25 05:44:21;;;;;;;;;;;21.20;44.20;;;;;;1533020;77;1045;-60
2023/03/25 05:46:23;;;;;;;;;;;21.20;44.20;;;;;;1542370;77;1919;-58
2023/03/25 05:48:25;;;;;;;;;;;21.20;44.00;;;;;;1541634;77;730;-59
2023/03/25 05:50:27;;;;;;;;;;;21.20;44.00;;;;;;1543566;77;790;-60
2023/03/25 05:52:29;;;;;;;;;;;21.10;43.90;;;;;;1536260;77;1134;-60
2023/03/25 05:54:31;;;;;;;;;;;21.20;43.80;;;;;;1529553;77;1596;-60
2023/03/25 05:56:35;;;;;;;;;;;21.10;43.90;;;;;;1542833;77;775;-60
2023/03/25 05:58:38;;;;;;;;;;;21.20;43.80;;;;;;1546940;77;1891;-59
2023/03/25 06:00:40;;;;;;;;;;;21.20;43.90;;;;;;1535104;77;699;-60
2023/03/25 06:02:42;;;;;;;;;;;21.30;43.90;;;;;;1538145;77;1149;-59
2023/03/25 06:04:45;;;;;;;;;;;21.20;43.70;;;;;;1542573;77;742;-59
2023/03/25 06:06:47;;;;;;;;;;;21.20;43.60;;;;;;1547992;77;1905;-59
2023/03/25 06:08:49;;;;;;;;;;;21.20;43.60;;;;;;1543813;77;1458;-59
2023/03/25 06:10:57;;;;;;;;;;;21.20;43.60;;;;;;1536150;77;758;-59
2023/03/25 06:12:55;;;;;;;;;;;21.30;43.60;;;;;;1543419;77;1629;-61
2023/03/25 06:14:57;;;;;;;;;;;21.30;43.80;;;;;;1541386;77;745;-59
2023/03/25 06:16:59;;;;;;;;;;;21.20;43.60;;;;;;1528211;77;666;-60
2023/03/25 06:19:01;;;;;;;;;;;21.20;43.70;;;;;;1538036;77;786;-59
2023/03/25 06:21:03;;;;;;;;;;;21.30;43.60;;;;;;1536346;77;900;-60
2023/03/25 06:23:05;;;;;;;;;;;21.20;43.50;;;;;;1526995;77;1522;-59
2023/03/25 06:25:07;;;;;;;;;;;21.30;43.50;;;;;;1537485;77;852;-60
2023/03/25 06:27:13;;;;;;;;;;;21.20;43.40;;;;;;1546881;77;1939;-60
2023/03/25 06:29:15;;;;;;;;;;;21.30;43.50;;;;;;1540874;77;764;-60
2023/03/25 06:31:19;;;;;;;;;;;21.30;43.40;;;;;;1540651;77;748;-59
2023/03/25 06:33:21;;;;;;;;;;;21.30;43.40;;;;;;1537720;77;1955;-60
2023/03/25 06:35:23;;;;;;;;;;;21.40;43.40;;;;;;1547372;77;632;-61
2023/03/25 06:37:25;;;;;;;;;;;21.40;43.40;;;;;;1541757;77;1553;-60
2023/03/25 06:39:30;;;;;;;;;;;21.40;43.40;;;;;;1536539;77;800;-60
2023/03/25 06:41:34;;;;;;;;;;;21.40;43.70;;;;;;1534872;77;1746;-60
2023/03/25 06:43:34;;;;;;;;;;;21.40;43.90;;;;;;1548128;77;1789;-61
2023/03/25 06:45:36;;;;;;;;;;;21.40;43.80;;;;;;1535547;77;794;-61
2023/03/25 06:47:38;;;;;;;;;;;21.40;43.60;;;;;;1543029;77;1941;-60
2023/03/25 06:49:40;;;;;;;;;;;21.30;43.60;;;;;;1545747;77;645;-60
2023/03/25 06:51:42;;;;;;;;;;;21.40;43.60;;;;;;1544910;77;1541;-60
2023/03/25 06:53:44;;;;;;;;;;;21.50;43.60;;;;;;1540874;77;1101;-60
2023/03/25 06:55:46;;;;;;;;;;;21.50;43.70;;;;;;1541906;77;696;-59
2023/03/25 06:57:47;;;;;;;;;;;21.50;43.60;;;;;;1541983;77;803;-59
2023/03/25 06:59:50;;;;;;;;;;;21.50;43.60;;;;;;1545176;77;759;-59
2023/03/25 07:01:51;;;;;;;;;;;21.50;43.60;;;;;;1547698;77;702;-59
2023/03/25 07:03:53;;;;;;;;;;;21.60;43.40;;;;;;1535922;77;1106;-59
2023/03/25 07:05:55;;;;;;;;;;;21.60;43.40;;;;;;1533250;77;1937;-59
2023/03/25 07:07:57;;;;;;;;;;;21.60;43.40;;;;;;1543636;77;694;-62
2023/03/25 07:10:00;;;;;;;;;;;21.60;43.40;;;;;;1525300;77;758;-60
2023/03/25 07:12:01;;;;;;;;;;;21.60;43.60;;;;;;1546603;77;1184;-59
2023/03/25 07:14:03;;;;;;;;;;;21.60;43.60;;;;;;1539573;77;766;-59
2023/03/25 07:16:06;;;;;;;;;;;21.60;43.60;;;;;;1536489;77;710;-60
2023/03/25 07:18:07;;;;;;;;;;;21.60;43.50;;;;;;1532336;77;588;-60
2023/03/25 07:20:10;;;;;;;;;;;21.60;43.70;;;;;;1527298;77;1699;-60
2023/03/25 07:22:12;;;;;;;;;;;21.60;43.70;;;;;;1536385;77;1123;-60
2023/03/25 07:24:14;;;;;;;;;;;21.70;43.60;;;;;;1547098;77;658;-61
2023/03/25 07:26:16;;;;;;;;;;;21.60;43.40;;;;;;1541894;77;1930;-60
2023/03/25 07:28:18;;;;;;;;;;;21.70;43.30;;;;;;1533762;77;817;-60
2023/03/25 07:30:20;;;;;;;;;;;21.70;43.20;;;;;;1538969;77;763;-60
2023/03/25 07:32:21;;;;;;;;;;;21.70;43.10;;;;;;1540186;77;1149;-61
2023/03/25 07:34:24;;;;;;;;;;;21.70;42.90;;;;;;1530057;77;1703;-60
2023/03/25 07:36:26;;;;;;;;;;;21.80;42.70;;;;;;1543753;77;727;-59
2023/03/25 07:38:28;;;;;;;;;;;21.80;42.90;;;;;;1541595;77;736;-59
2023/03/25 07:40:29;;;;;;;;;;;21.70;43.30;;;;;;1548255;77;790;-59
2023/03/25 07:42:31;;;;;;;;;;;21.60;43.50;;;;;;1543075;77;1123;-60
2023/03/25 07:44:33;;;;;;;;;;;21.60;43.80;;;;;;1539393;77;594;-61
2023/03/25 07:46:35;;;;;;;;;;;21.60;44.10;;;;;;1535816;77;1929;-58
2023/03/25 07:48:37;;;;;;;;;;;21.60;44.70;;;;;;1537782;77;1544;-60
2023/03/25 07:50:39;;;;;;;;;;;21.60;44.80;;;;;;1547657;77;700;-60
2023/03/25 07:52:41;;;;;;;;;;;21.60;44.70;;;;;;1540586;77;1144;-60
2023/03/25 07:54:43;;;;;;;;;;;21.60;45.30;;;;;;1537551;77;682;-59
2023/03/25 07:56:45;;;;;;;;;;;21.60;46.00;;;;;;1547827;77;759;-59
2023/03/25 07:58:48;;;;;;;;;;;21.60;45.50;;;;;;1542175;77;749;-60
2023/03/25 08:00:50;;;;;;;;;;;21.70;46.10;;;;;;1538727;77;644;-59
2023/03/25 08:02:52;;;;;;;;;;;21.70;46.00;;;;;;1544166;77;1500;-59
2023/03/25 08:04:54;;;;;;;;;;;21.70;46.80;;;;;;1531593;77;677;-60
2023/03/25 08:06:56;;;;;;;;;;;21.80;48.00;;;;;;1547277;77;1912;-59
2023/03/25 08:08:58;;;;;;;;;;;21.70;48.70;;;;;;1540728;77;739;-61
2023/03/25 08:11:00;;;;;;;;;;;21.90;49.40;;;;;;1545118;77;716;-60
2023/03/25 08:13:02;;;;;;;;;;;21.80;48.90;;;;;;1543187;77;1173;-62
2023/03/25 08:15:05;;;;;;;;;;;21.90;47.60;;;;;;1541445;77;1509;-61
2023/03/25 08:17:07;;;;;;;;;;;21.80;46.60;;;;;;1533435;77;749;-61
2023/03/25 08:19:09;;;;;;;;;;;21.80;46.30;;;;;;1540096;77;664;-60
2023/03/25 08:21:11;;;;;;;;;;;21.80;45.60;;;;;;1528620;77;695;-60
2023/03/25 08:23:18;;;;;;;;;;;21.70;45.30;;;;;;1536991;77;1201;-61
2023/03/25 08:25:17;;;;;;;;;;;21.70;44.70;;;;;;1539593;77;1702;-60
2023/03/25 08:27:19;;;;;;;;;;;21.70;44.70;;;;;;1530988;77;1917;-60
2023/03/25 08:29:23;;;;;;;;;;;21.60;44.30;;;;;;1540396;77;1437;-60
2023/03/25 08:31:25;;;;;;;;;;;21.70;44.50;;;;;;1536547;77;832;-61
2023/03/25 08:33:33;;;;;;;;;;;21.70;44.20;;;;;;1533605;77;1145;-60
2023/03/25 08:35:31;;;;;;;;;;;21.70;44.40;;;;;;1541597;77;1609;-61
2023/03/25 08:37:37;;;;;;;;;;;21.70;44.30;;;;;;1539592;77;810;-61
2023/03/25 08:39:38;;;;;;;;;;;21.70;44.20;;;;;;1531578;77;1330;-62
2023/03/25 08:41:39;;;;;;;;;;;21.70;44.00;;;;;;1538340;77;1779;-60
2023/03/25 08:43:41;;;;;;;;;;;21.90;43.90;;;;;;1546050;77;1516;-59
2023/03/25 08:45:43;;;;;;;;;;;21.90;43.60;;;;;;1537702;77;778;-61
2023/03/25 08:47:45;;;;;;;;;;;22.00;43.20;;;;;;1539935;77;1945;-61
2023/03/25 08:49:47;;;;;;;;;;;22.00;43.10;;;;;;1547685;77;809;-62
2023/03/25 08:51:49;;;;;;;;;;;21.90;43.10;;;;;;1540946;77;664;-61
2023/03/25 08:53:51;;;;;;;;;;;21.80;41.70;;;;;;1546998;77;1106;-62
2023/03/25 08:55:53;;;;;;;;;;;21.70;41.40;;;;;;1548056;77;577;-62
2023/03/25 08:57:55;;;;;;;;;;;21.60;40.30;;;;;;1545190;77;1526;-61
2023/03/25 08:59:57;;;;;;;;;;;21.60;40.50;;;;;;1538592;77;682;-62
2023/03/25 09:01:59;;;;;;;;;;;21.50;39.80;;;;;;1532132;77;723;-62
2023/03/25 09:04:01;;;;;;;;;;;21.40;40.00;;;;;;1530023;77;1215;-61
2023/03/25 09:06:06;;;;;;;;;;;21.30;38.60;;;;;;1535867;77;738;-61
2023/03/25 09:08:08;;;;;;;;;;;21.30;40.70;;;;;;1541804;77;1931;-61
2023/03/25 09:10:11;;;;;;;;;;;21.30;40.10;;;;;;1524502;77;770;-61
2023/03/25 09:12:13;;;;;;;;;;;21.30;39.30;;;;;;1527969;77;1549;-61
2023/03/25 09:14:15;;;;;;;;;;;21.20;39.30;;;;;;1542122;77;800;-61
2023/03/25 09:16:17;;;;;;;;;;;21.20;38.90;;;;;;1547980;77;680;-61
2023/03/25 09:18:19;;;;;;;;;;;21.30;39.90;;;;;;1544474;77;778;-60
2023/03/25 09:20:21;;;;;;;;;;;21.30;39.20;;;;;;1542700;77;746;-61
2023/03/25 09:22:23;;;;;;;;;;;21.10;39.20;;;;;;1547139;77;1172;-61
2023/03/25 09:24:25;;;;;;;;;;;21.20;39.00;;;;;;1540849;77;781;-61
2023/03/25 09:26:27;;;;;;;;;;;21.20;38.70;;;;;;1540624;77;1546;-62
2023/03/25 09:28:29;;;;;;;;;;;21.20;38.10;;;;;;1536150;77;1911;-61
2023/03/25 09:30:31;;;;;;;;;;;21.10;38.00;;;;;;1548167;77;709;-61
2023/03/25 09:32:32;;;;;;;;;;;21.10;37.60;;;;;;1548025;77;1121;-62
2023/03/25 09:34:34;;;;;;;;;;;21.10;37.00;;;;;;1544829;77;758;-60
2023/03/25 09:36:36;;;;;;;;;;;21.00;38.40;;;;;;1546350;77;674;-61
2023/03/25 09:38:38;;;;;;;;;;;21.00;37.10;;;;;;1548108;77;701;-60
2023/03/25 09:40:41;;;;;;;;;;;21.00;37.90;;;;;;1539576;77;1588;-61
2023/03/25 09:42:51;;;;;;;;;;;21.20;37.00;;;;;;1545829;77;1167;-60
2023/03/25 09:45:12;;;;;;;;;;;21.00;37.50;;;;;;1547855;77;925;-61
2023/03/25 09:47:14;;;;;;;;;;;21.10;37.40;;;;;;1535099;77;1939;-60
2023/03/25 09:49:16;;;;;;;;;;;21.00;37.60;;;;;;1547503;77;707;-62
2023/03/25 09:51:22;;;;;;;;;;;21.10;36.80;;;;;;1545493;77;718;-61
2023/03/25 09:53:29;;;;;;;;;;;21.00;36.80;;;;;;1539016;77;1508;-60
2023/03/25 09:55:32;;;;;;;;;;;21.00;36.00;;;;;;1545462;77;773;-61
2023/03/25 09:57:36;;;;;;;;;;;20.90;36.80;;;;;;1540470;77;739;-60
2023/03/25 09:59:48;;;;;;;;;;;20.90;36.50;;;;;;1542838;77;698;-60
2023/03/25 10:01:52;;;;;;;;;;;20.90;37.00;;;;;;1540142;77;1379;-61
2023/03/25 10:03:58;;;;;;;;;;;20.90;37.20;;;;;;1541398;77;1465;-62
2023/03/25 10:06:02;;;;;;;;;;;21.00;36.50;;;;;;1542510;77;698;-62
2023/03/25 10:08:05;;;;;;;;;;;20.90;36.80;;;;;;1542612;77;1935;-61
2023/03/25 10:10:21;;;;;;;;;;;21.00;36.60;;;;;;1536303;77;742;-61
2023/03/25 10:12:41;;;;;;;;;;;20.90;36.50;;;;;;1541095;77;1654;-60
2023/03/25 10:14:57;;;;;;;;;;;20.90;36.80;;;;;;1534119;77;640;-60
2023/03/25 10:17:18;;;;;;;;;;;21.00;36.10;;;;;;1535796;77;1872;-60
2023/03/25 10:19:28;;;;;;;;;;;20.90;36.30;;;;;;1536933;77;1876;-61
2023/03/25 10:21:31;;;;;;;;;;;20.90;36.30;;;;;;1544995;77;2073;-60
2023/03/25 10:23:52;;;;;;;;;;;21.00;35.10;;;;;;1548430;77;2110;-62
2023/03/25 10:25:55;;;;;;;;;;;20.90;36.30;;;;;;1531758;77;700;-60
2023/03/25 10:27:57;;;;;;;;;;;20.80;35.70;;;;;;1537414;77;1910;-61
2023/03/25 10:30:03;;;;;;;;;;;20.80;35.40;;;;;;1546686;77;755;-60
2023/03/25 10:32:06;;;;;;;;;;;20.80;36.10;;;;;;1537908;77;1158;-61
2023/03/25 10:34:12;;;;;;;;;;;20.80;35.50;;;;;;1539374;77;666;-61
2023/03/25 10:36:16;;;;;;;;;;;20.70;33.50;;;;;;1545376;77;1500;-60
2023/03/25 10:38:19;;;;;;;;;;;20.70;35.40;;;;;;1547315;77;748;-61
2023/03/25 10:40:29;;;;;;;;;;;20.70;35.30;;;;;;1534248;77;727;-60
2023/03/25 10:42:35;;;;;;;;;;;20.70;35.50;;;;;;1538243;77;1150;-61
2023/03/25 10:44:36;;;;;;;;;;;20.60;34.20;;;;;;1542396;77;702;-60
2023/03/25 10:46:46;;;;;;;;;;;20.50;34.40;;;;;;1548290;77;1000;-60
2023/03/25 10:48:46;;;;;;;;;;;20.50;35.60;;;;;;1535951;77;1931;-60
2023/03/25 10:50:48;;;;;;;;;;;20.60;34.70;;;;;;1533955;77;1570;-60
2023/03/25 10:52:51;;;;;;;;;;;20.50;35.30;;;;;;1541788;77;1141;-61
2023/03/25 10:54:54;;;;;;;;;;;20.50;35.00;;;;;;1538800;77;768;-60
2023/03/25 10:56:56;;;;;;;;;;;20.60;35.10;;;;;;1546593;77;720;-61
2023/03/25 10:58:58;;;;;;;;;;;20.60;34.80;;;;;;1541226;77;724;-60
2023/03/25 11:01:00;;;;;;;;;;;20.60;34.50;;;;;;1537516;77;595;-61
2023/03/25 11:03:03;;;;;;;;;;;20.70;35.40;;;;;;1540048;77;1174;-60
2023/03/25 11:05:06;;;;;;;;;;;20.60;34.50;;;;;;1535415;77;1588;-60
2023/03/25 11:07:15;;;;;;;;;;;20.60;34.90;;;;;;1505320;78;601;-62
2023/03/25 11:09:24;;;;;;;;;;;20.60;35.20;;;;;;1509138;76;711;-61
2023/03/25 11:11:27;;;;;;;;;;;20.60;33.80;;;;;;1513640;76;768;-61
2023/03/25 11:13:30;;;;;;;;;;;20.50;34.60;;;;;;1519240;76;1711;-60
2023/03/25 11:15:35;;;;;;;;;;;20.50;33.40;;;;;;1519125;77;713;-61
2023/03/25 11:17:39;;;;;;;;;;;20.50;34.80;;;;;;1499980;77;657;-60
2023/03/25 11:19:42;;;;;;;;;;;20.50;34.60;;;;;;1535004;77;1619;-60
2023/03/25 11:21:45;;;;;;;;;;;20.50;34.60;;;;;;1536643;77;716;-60
2023/03/25 11:23:48;;;;;;;;;;;20.60;34.30;;;;;;1547781;77;1182;-61
2023/03/25 11:25:50;;;;;;;;;;;20.40;34.20;;;;;;1541367;77;711;-60
2023/03/25 11:27:53;;;;;;;;;;;20.40;34.70;;;;;;1538256;77;1928;-61
2023/03/25 11:29:57;;;;;;;;;;;20.50;34.70;;;;;;1535157;77;1705;-60
2023/03/25 11:32:09;;;;;;;;;;;20.30;34.20;;;;;;1537959;77;1505;-61
2023/03/25 11:34:13;;;;;;;;;;;20.30;34.70;;;;;;1548401;77;1196;-60
2023/03/25 11:36:28;;;;;;;;;;;20.30;34.90;;;;;;1547253;77;820;-60
2023/03/25 11:38:35;;;;;;;;;;;20.30;35.00;;;;;;1533880;77;777;-60
2023/03/25 11:40:34;;;;;;;;;;;20.30;33.90;;;;;;1546955;77;1425;-60
2023/03/25 11:42:38;;;;;;;;;;;20.30;34.90;;;;;;1545425;77;1155;-60
2023/03/25 11:44:40;;;;;;;;;;;20.30;34.80;;;;;;1547218;77;1511;-60
2023/03/25 11:46:42;;;;;;;;;;;20.30;34.80;;;;;;1543923;77;1312;-60
2023/03/25 11:48:45;;;;;;;;;;;20.30;34.60;;;;;;1546533;77;1920;-60
2023/03/25 11:50:51;;;;;;;;;;;20.20;34.40;;;;;;1542427;77;686;-61
2023/03/25 11:52:53;;;;;;;;;;;20.20;34.30;;;;;;1533213;77;1448;-61
2023/03/25 11:54:55;;;;;;;;;;;20.20;34.50;;;;;;1542303;77;777;-60
2023/03/25 11:56:57;;;;;;;;;;;20.30;34.60;;;;;;1539448;77;751;-61
2023/03/25 11:59:00;;;;;;;;;;;20.30;34.30;;;;;;1546925;77;636;-61
2023/03/25 12:01:03;;;;;;;;;;;20.30;34.20;;;;;;1530719;77;1477;-60
2023/03/25 12:03:17;;;;;;;;;;;20.30;32.80;;;;;;1539733;77;1847;-61
2023/03/25 12:05:18;;;;;;;;;;;20.20;34.20;;;;;;1534302;77;678;-61
2023/03/25 12:07:20;;;;;;;;;;;20.30;34.50;;;;;;1540933;77;819;-60
2023/03/25 12:09:22;;;;;;;;;;;20.30;34.60;;;;;;1543902;77;1929;-61
2023/03/25 12:11:39;;;;;;;;;;;20.30;33.90;;;;;;1545532;77;715;-60
2023/03/25 12:13:58;;;;;;;;;;;20.20;33.80;;;;;;1536800;77;1151;-61
2023/03/25 12:16:06;;;;;;;;;;;20.20;34.40;;;;;;1542340;77;2638;-60